createdAt,value
2018-12-11T00:01:52.197Z,19.43
2018-12-11T00:04:20.904Z,9.05
2018-12-11T00:06:48.693Z,7.57
2018-12-11T00:09:16.444Z,4.67
2018-12-11T00:11:44.170Z,6.25
2018-12-11T00:14:14.143Z,12.37
2018-12-11T00:16:42.297Z,7.58
2018-12-11T00:19:10.046Z,6.87
2018-12-11T00:21:38.164Z,8.85
2018-12-11T00:24:07.082Z,9.20
2018-12-11T00:26:34.871Z,11.05
2018-12-11T00:29:02.629Z,8.60
2018-12-11T00:31:30.359Z,7.90
2018-12-11T00:33:58.168Z,6.78
2018-12-11T00:36:25.973Z,3.77
2018-12-11T00:38:53.697Z,5.55
2018-12-11T00:41:21.445Z,10.37
2018-12-11T00:43:49.248Z,9.13
2018-12-11T00:46:17.402Z,7.23
2018-12-11T00:48:45.157Z,5.40
2018-12-11T00:51:13.208Z,8.00
2018-12-11T00:53:41.281Z,12.28
2018-12-11T00:56:09.078Z,9.33
2018-12-11T00:58:36.846Z,6.90
2018-12-11T01:01:04.699Z,10.70
2018-12-11T01:03:32.517Z,13.40
2018-12-11T01:06:00.244Z,11.03
2018-12-11T01:08:27.971Z,7.40
2018-12-11T01:10:55.994Z,8.40
2018-12-11T01:13:23.739Z,13.00
2018-12-11T01:15:51.507Z,8.38
2018-12-11T01:18:19.731Z,4.60
2018-12-11T01:20:47.471Z,8.75
2018-12-11T01:23:15.251Z,9.05
2018-12-11T01:25:42.991Z,9.08
2018-12-11T01:28:10.895Z,8.10
2018-12-11T01:30:38.724Z,10.48
2018-12-11T01:33:06.519Z,12.85
2018-12-11T01:35:34.638Z,9.90
2018-12-11T01:38:02.382Z,8.95
2018-12-11T01:40:30.286Z,8.23
2018-12-11T01:42:58.469Z,7.45
2018-12-11T01:45:26.234Z,12.60
2018-12-11T01:47:54.011Z,10.80
2018-12-11T01:50:21.753Z,13.43
2018-12-11T01:52:49.512Z,8.43
2018-12-11T01:55:17.339Z,15.50
2018-12-11T01:57:45.078Z,10.90
2018-12-11T02:00:13.279Z,12.43
2018-12-11T02:02:40.990Z,10.93
2018-12-11T02:05:08.731Z,15.35
2018-12-11T02:07:36.804Z,10.72
2018-12-11T02:10:04.698Z,12.58
2018-12-11T02:12:32.430Z,10.72
2018-12-11T02:15:00.316Z,16.57
2018-12-11T02:17:28.125Z,13.70
2018-12-11T02:19:56.070Z,11.83
2018-12-11T02:22:23.890Z,11.65
2018-12-11T02:24:51.628Z,9.15
2018-12-11T02:27:19.368Z,12.07
2018-12-11T02:29:47.099Z,12.45
2018-12-11T02:32:14.829Z,12.58
2018-12-11T02:34:42.983Z,9.28
2018-12-11T02:37:10.813Z,10.08
2018-12-11T02:39:38.545Z,9.65
2018-12-11T02:42:06.292Z,7.72
2018-12-11T02:44:34.343Z,7.25
2018-12-11T02:47:02.085Z,6.90
2018-12-11T02:49:29.822Z,10.68
2018-12-11T02:51:57.552Z,7.55
2018-12-11T02:54:25.325Z,7.50
2018-12-11T02:56:53.537Z,6.87
2018-12-11T02:59:21.263Z,8.13
2018-12-11T03:01:50.569Z,11.70
2018-12-11T03:04:18.347Z,9.53
2018-12-11T03:06:46.071Z,10.08
2018-12-11T03:09:14.310Z,9.73
2018-12-11T03:11:42.065Z,8.48
2018-12-11T03:14:09.805Z,8.45
2018-12-11T03:16:37.549Z,11.43
2018-12-11T03:19:05.373Z,14.70
2018-12-11T03:21:33.122Z,7.83
2018-12-11T03:24:01.112Z,9.58
2018-12-11T03:26:28.913Z,6.20
2018-12-11T03:28:56.691Z,9.30
2018-12-11T03:31:24.747Z,8.18
2018-12-11T03:33:52.558Z,9.70
2018-12-11T03:36:20.301Z,10.28
2018-12-11T03:38:48.440Z,10.40
2018-12-11T03:41:16.171Z,13.50
2018-12-11T03:43:43.896Z,11.80
2018-12-11T03:46:11.635Z,12.13
2018-12-11T03:48:39.387Z,10.20
2018-12-11T03:51:07.116Z,14.20
2018-12-11T03:53:34.848Z,5.40
2018-12-11T03:56:02.916Z,8.23
2018-12-11T03:58:30.726Z,6.35
2018-12-11T04:00:58.462Z,5.80
2018-12-11T04:03:26.522Z,7.90
2018-12-11T04:05:54.564Z,8.65
2018-12-11T04:08:22.309Z,7.40
2018-12-11T04:10:50.028Z,8.13
2018-12-11T04:13:17.764Z,5.53
2018-12-11T04:15:45.504Z,9.78
2018-12-11T04:18:13.306Z,8.58
2018-12-11T04:20:41.492Z,7.53
2018-12-11T04:23:09.297Z,6.70
2018-12-11T04:25:37.055Z,12.20
2018-12-11T04:28:05.133Z,10.33
2018-12-11T04:30:32.889Z,7.40
2018-12-11T04:33:00.598Z,10.60
2018-12-11T04:35:28.330Z,9.05
2018-12-11T04:37:56.068Z,11.80
2018-12-11T04:40:23.813Z,7.78
2018-12-11T04:42:51.554Z,11.57
2018-12-11T04:45:19.330Z,9.48
2018-12-11T04:47:47.543Z,6.12
2018-12-11T04:50:15.677Z,12.00
2018-12-11T04:52:44.280Z,7.30
2018-12-11T04:55:12.175Z,11.80
2018-12-11T04:57:39.985Z,8.28
2018-12-11T05:00:07.903Z,7.72
2018-12-11T05:02:36.079Z,5.78
2018-12-11T05:05:04.735Z,6.55
2018-12-11T05:07:32.575Z,5.12
2018-12-11T05:10:00.602Z,4.90
2018-12-11T05:12:28.632Z,6.47
2018-12-11T05:14:56.360Z,5.45
2018-12-11T05:17:24.390Z,4.92
2018-12-11T05:19:52.134Z,2.40
2018-12-11T05:22:20.174Z,5.12
2018-12-11T05:27:23.698Z,5.62
2018-12-11T05:29:52.424Z,7.80
2018-12-11T05:32:20.181Z,6.87
2018-12-11T05:34:47.899Z,8.13
2018-12-11T05:37:16.019Z,7.08
2018-12-11T05:39:43.796Z,9.08
2018-12-11T05:42:11.771Z,10.82
2018-12-11T05:44:39.555Z,10.43
2018-12-11T05:47:08.675Z,5.47
2018-12-11T05:49:36.411Z,6.60
2018-12-11T05:52:04.179Z,8.20
2018-12-11T05:54:32.352Z,3.80
2018-12-11T05:57:01.882Z,11.78
2018-12-11T05:59:34.703Z,6.85
2018-12-11T06:02:06.551Z,4.17
2018-12-11T06:04:36.976Z,9.35
2018-12-11T06:07:08.168Z,8.95
2018-12-11T06:09:41.975Z,6.47
2018-12-11T06:12:11.229Z,5.00
2018-12-11T06:14:39.066Z,5.50
2018-12-11T06:17:06.827Z,8.25
2018-12-11T06:19:34.947Z,7.47
2018-12-11T06:22:03.202Z,9.83
2018-12-11T06:24:32.649Z,7.55
2018-12-11T06:27:00.880Z,8.60
2018-12-11T06:29:29.532Z,5.87
2018-12-11T06:31:57.393Z,6.17
2018-12-11T06:34:26.685Z,8.53
2018-12-11T06:36:54.555Z,9.48
2018-12-11T06:39:22.966Z,9.38
2018-12-11T06:41:50.801Z,8.38
2018-12-11T06:44:20.386Z,5.30
2018-12-11T06:46:48.212Z,11.93
2018-12-11T06:49:16.261Z,11.35
2018-12-11T06:51:44.713Z,9.23
2018-12-11T06:54:17.106Z,4.72
2018-12-11T06:56:44.931Z,8.00
2018-12-11T06:59:13.160Z,7.72
2018-12-11T07:01:41.719Z,11.90
2018-12-11T07:04:11.321Z,8.43
2018-12-11T07:06:39.136Z,9.30
2018-12-11T07:09:07.278Z,12.33
2018-12-11T07:11:35.748Z,12.88
2018-12-11T07:14:04.501Z,11.30
2018-12-11T07:16:33.058Z,13.67
2018-12-11T07:19:01.166Z,10.18
2018-12-11T07:21:29.639Z,16.60
2018-12-11T07:23:57.498Z,13.30
2018-12-11T07:26:25.827Z,14.35
2018-12-11T07:28:54.104Z,11.80
2018-12-11T07:31:21.891Z,11.00
2018-12-11T07:33:52.024Z,10.38
2018-12-11T07:36:22.912Z,7.40
2018-12-11T07:38:51.860Z,10.63
2018-12-11T07:41:20.304Z,16.05
2018-12-11T07:43:49.543Z,7.67
2018-12-11T07:46:20.215Z,8.23
2018-12-11T07:48:49.820Z,12.57
2018-12-11T07:51:18.351Z,5.87
2018-12-11T07:53:46.686Z,9.08
2018-12-11T07:56:14.455Z,6.60
2018-12-11T07:58:45.416Z,9.70
2018-12-11T08:01:13.300Z,8.93
2018-12-11T08:03:41.257Z,7.43
2018-12-11T08:06:10.897Z,9.20
2018-12-11T08:08:40.132Z,9.87
2018-12-11T08:11:08.335Z,9.30
2018-12-11T08:13:36.570Z,9.47
2018-12-11T08:16:04.300Z,7.63
2018-12-11T08:18:33.454Z,10.03
2018-12-11T08:21:01.509Z,9.23
2018-12-11T08:23:29.239Z,9.13
2018-12-11T08:25:59.173Z,7.47
2018-12-11T08:28:28.631Z,10.50
2018-12-11T08:30:56.654Z,8.48
2018-12-11T08:33:25.523Z,6.87
2018-12-11T08:35:53.986Z,6.80
2018-12-11T08:38:22.894Z,8.75
2018-12-11T08:40:51.081Z,8.53
2018-12-11T08:43:19.015Z,9.65
2018-12-11T08:45:48.892Z,4.63
2018-12-11T08:48:19.221Z,10.95
2018-12-11T08:50:47.684Z,8.15
2018-12-11T08:53:15.566Z,6.87
2018-12-11T08:55:44.260Z,4.83
2018-12-11T08:58:12.455Z,9.10
2018-12-11T09:00:40.374Z,7.70
2018-12-11T09:03:11.395Z,7.20
2018-12-11T09:05:41.280Z,7.60
2018-12-11T09:10:50.046Z,9.87
2018-12-11T09:13:17.899Z,7.83
2018-12-11T09:15:46.173Z,9.50
2018-12-11T09:18:14.982Z,10.00
2018-12-11T09:20:44.881Z,6.63
2018-12-11T09:23:15.718Z,10.53
2018-12-11T09:25:48.506Z,7.73
2018-12-11T09:28:19.747Z,9.77
2018-12-11T09:30:48.848Z,11.23
2018-12-11T09:33:16.776Z,8.40
2018-12-11T09:35:45.451Z,9.43
2018-12-11T09:38:13.295Z,8.83
2018-12-11T09:40:41.089Z,10.20
2018-12-11T09:43:12.210Z,9.60
2018-12-11T09:45:41.419Z,9.83
2018-12-11T09:48:09.429Z,8.33
2018-12-11T09:50:37.175Z,12.33
2018-12-11T09:53:05.304Z,7.33
2018-12-11T09:55:33.149Z,7.87
2018-12-11T09:58:01.856Z,7.53
2018-12-11T10:00:30.600Z,6.90
2018-12-11T10:02:59.622Z,13.57
2018-12-11T10:05:32.139Z,6.80
2018-12-11T10:08:00.181Z,9.73
2018-12-11T10:10:28.764Z,8.33
2018-12-11T10:12:57.574Z,6.70
2018-12-11T10:15:27.411Z,10.00
2018-12-11T10:17:55.203Z,8.23
2018-12-11T10:20:23.184Z,8.77
2018-12-11T10:22:51.430Z,8.30
2018-12-11T10:25:20.761Z,6.03
2018-12-11T10:27:53.253Z,7.00
2018-12-11T10:30:21.814Z,12.27
2018-12-11T10:32:51.926Z,9.80
2018-12-11T10:35:19.918Z,7.23
2018-12-11T10:37:48.129Z,8.33
2018-12-11T10:40:17.544Z,8.03
2018-12-11T10:42:45.568Z,9.43
2018-12-11T10:45:13.927Z,6.00
2018-12-11T10:47:41.675Z,7.30
2018-12-11T10:50:10.166Z,8.83
2018-12-11T10:52:41.086Z,8.03
2018-12-11T10:55:08.832Z,9.27
2018-12-11T10:57:36.732Z,6.93
2018-12-11T11:00:05.985Z,3.90
2018-12-11T11:02:36.926Z,10.37
2018-12-11T11:05:06.267Z,11.47
2018-12-11T11:07:35.346Z,10.27
2018-12-11T11:10:04.204Z,7.83
2018-12-11T11:12:32.257Z,4.67
2018-12-11T11:15:02.924Z,8.03
2018-12-11T11:17:34.382Z,5.43
2018-12-11T11:20:02.528Z,7.93
2018-12-11T11:22:33.452Z,9.93
2018-12-11T11:25:02.399Z,8.10
2018-12-11T11:27:30.935Z,9.50
2018-12-11T11:29:58.786Z,5.63
2018-12-11T11:32:27.842Z,8.53
2018-12-11T11:34:56.384Z,7.27
2018-12-11T11:37:24.561Z,7.17
2018-12-11T11:39:57.492Z,10.17
2018-12-11T11:42:27.451Z,6.13
2018-12-11T11:44:57.003Z,7.70
2018-12-11T11:47:25.621Z,5.33
2018-12-11T11:49:54.927Z,6.17
2018-12-11T11:52:25.333Z,7.60
2018-12-11T11:54:54.238Z,7.97
2018-12-11T11:57:22.463Z,5.73
2018-12-11T11:59:52.964Z,8.17
2018-12-11T12:02:21.169Z,4.97
2018-12-11T12:04:49.431Z,8.97
2018-12-11T12:07:22.051Z,5.07
2018-12-11T12:09:52.181Z,5.30
2018-12-11T12:12:20.434Z,4.30
2018-12-11T12:14:49.164Z,8.00
2018-12-11T12:17:17.273Z,6.37
2018-12-11T12:19:53.694Z,4.87
2018-12-11T12:22:22.963Z,15.47
2018-12-11T12:27:25.240Z,6.60
2018-12-11T12:29:53.124Z,7.37
2018-12-11T12:35:28.856Z,6.90
2018-12-11T12:37:58.810Z,8.17
2018-12-11T12:40:27.792Z,5.43
2018-12-11T12:42:55.626Z,7.30
2018-12-11T12:45:28.185Z,8.20
2018-12-11T12:51:06.263Z,5.40
2018-12-11T12:54:01.322Z,6.47
2018-12-11T12:56:29.170Z,7.27
2018-12-11T13:02:05.369Z,7.77
2018-12-11T13:07:44.843Z,6.40
2018-12-11T13:10:14.236Z,9.23
2018-12-11T13:15:50.363Z,10.60
2018-12-11T13:21:25.966Z,7.00
2018-12-11T13:23:54.467Z,9.03
2018-12-11T13:26:22.690Z,6.93
2018-12-11T13:29:00.451Z,5.47
2018-12-11T13:31:32.583Z,8.57
2018-12-11T13:36:32.018Z,6.83
2018-12-11T13:38:57.933Z,6.00
2018-12-11T13:41:25.684Z,7.47
2018-12-11T13:43:54.018Z,5.07
2018-12-11T13:46:22.235Z,5.03
2018-12-11T13:51:58.880Z,9.67
2018-12-11T13:55:03.894Z,6.53
2018-12-11T13:57:31.819Z,6.60
2018-12-11T14:03:06.902Z,12.53
2018-12-11T14:05:35.323Z,8.03
2018-12-11T14:08:03.753Z,6.67
2018-12-11T14:10:32.579Z,7.57
2018-12-11T14:13:00.379Z,5.53
2018-12-11T14:15:36.951Z,9.00
2018-12-11T14:18:05.105Z,8.50
2018-12-11T14:20:33.069Z,11.80
2018-12-11T14:26:13.402Z,11.27
2018-12-11T14:31:49.598Z,6.80
2018-12-11T14:37:25.462Z,14.23
2018-12-11T14:39:53.516Z,7.53
2018-12-11T14:42:21.584Z,4.93
2018-12-11T14:44:50.572Z,5.67
2018-12-11T14:47:19.333Z,10.30
2018-12-11T14:49:47.321Z,11.23
2018-12-11T14:52:43.081Z,6.63
2018-12-11T14:55:16.034Z,10.13
2018-12-11T14:57:47.654Z,10.23
2018-12-11T15:00:50.514Z,7.23
2018-12-11T15:03:19.514Z,6.00
2018-12-11T15:05:49.150Z,7.03
2018-12-11T15:09:11.800Z,10.37
2018-12-11T15:12:07.331Z,8.87
2018-12-11T15:14:37.350Z,6.70
2018-12-11T15:17:06.640Z,12.10
2018-12-11T15:19:34.407Z,9.90
2018-12-11T15:22:03.072Z,10.13
2018-12-11T15:27:40.168Z,13.60
2018-12-11T15:33:15.510Z,7.13
2018-12-11T15:35:43.418Z,12.37
2018-12-11T15:38:11.254Z,9.27
2018-12-11T15:40:41.368Z,7.23
2018-12-11T15:43:11.048Z,10.97
2018-12-11T15:45:40.720Z,10.43
2018-12-11T15:48:10.668Z,11.83
2018-12-11T15:53:45.474Z,9.10
2018-12-11T15:56:45.051Z,11.87
2018-12-11T16:02:03.280Z,12.93
2018-12-11T16:04:32.923Z,16.73
2018-12-11T16:07:00.721Z,13.40
2018-12-11T16:09:55.796Z,15.73
2018-12-11T16:12:25.616Z,21.80
2018-12-11T16:15:21.768Z,18.13
2018-12-11T16:17:49.783Z,11.23
2018-12-11T16:20:40.019Z,21.53
2018-12-11T16:23:08.836Z,14.40
2018-12-11T16:28:47.109Z,13.37
2018-12-11T16:31:17.626Z,18.23
2018-12-11T16:33:45.494Z,33.07
2018-12-11T16:36:14.001Z,20.80
2018-12-11T16:38:43.153Z,16.10
2018-12-11T16:41:38.224Z,15.30
2018-12-11T16:44:06.049Z,12.10
2018-12-11T16:46:38.548Z,11.10
2018-12-11T16:49:33.739Z,13.10
2018-12-11T16:52:06.178Z,14.00
2018-12-11T16:57:59.213Z,15.87
2018-12-11T17:03:35.032Z,12.10
2018-12-11T17:06:04.459Z,16.13
2018-12-11T17:08:34.475Z,15.63
2018-12-11T17:11:04.894Z,16.93
2018-12-11T17:14:04.450Z,17.00
2018-12-11T17:16:36.150Z,16.30
2018-12-11T17:19:04.707Z,12.77
2018-12-11T17:24:42.936Z,17.10
2018-12-11T17:27:13.056Z,14.47
2018-12-11T17:29:48.819Z,12.03
2018-12-11T17:32:19.844Z,15.57
2018-12-11T17:41:20.569Z,13.77
2018-12-11T17:43:48.572Z,19.13
2018-12-11T17:46:17.414Z,21.07
2018-12-11T17:48:45.358Z,11.40
2018-12-11T17:51:19.975Z,14.23
2018-12-11T17:53:52.584Z,17.97
2018-12-11T17:56:24.560Z,17.80
2018-12-11T17:58:52.714Z,20.07
2018-12-11T18:01:23.681Z,20.67
2018-12-11T18:03:52.566Z,17.17
2018-12-11T18:06:22.575Z,17.87
2018-12-11T18:08:52.882Z,17.07
2018-12-11T18:11:24.431Z,15.93
2018-12-11T18:13:55.564Z,15.73
2018-12-11T18:16:26.825Z,13.97
2018-12-11T18:18:54.702Z,15.57
2018-12-11T18:21:27.891Z,13.20
2018-12-11T18:23:55.999Z,11.60
2018-12-11T18:26:24.463Z,6.83
2018-12-11T18:28:56.278Z,5.50
2018-12-11T18:31:24.786Z,5.57
2018-12-11T18:33:52.606Z,7.53
2018-12-11T18:36:21.190Z,5.67
2018-12-11T18:38:50.547Z,7.17
2018-12-11T18:41:18.608Z,7.17
2018-12-11T18:43:46.692Z,5.90
2018-12-11T18:46:16.249Z,4.83
2018-12-11T18:48:44.481Z,11.12
2018-12-11T18:51:12.525Z,9.83
2018-12-11T18:53:44.354Z,6.53
2018-12-11T18:56:13.502Z,13.93
2018-12-11T18:58:44.633Z,9.57
2018-12-11T19:01:14.591Z,6.30
2018-12-11T19:03:49.268Z,8.40
2018-12-11T19:06:15.224Z,9.50
2018-12-11T19:08:43.697Z,6.90
2018-12-11T19:11:13.775Z,7.83
2018-12-11T19:13:43.834Z,10.33
2018-12-11T19:16:18.606Z,9.33
2018-12-11T19:18:48.153Z,9.70
2018-12-11T19:21:17.187Z,6.10
2018-12-11T19:23:46.741Z,6.93
2018-12-11T19:26:14.681Z,7.60
2018-12-11T19:28:45.029Z,10.17
2018-12-11T19:31:14.953Z,8.80
2018-12-11T19:33:44.276Z,9.33
2018-12-11T19:36:15.804Z,7.77
2018-12-11T19:38:46.450Z,8.20
2018-12-11T19:41:19.780Z,8.30
2018-12-11T19:44:03.631Z,7.63
2018-12-11T19:46:31.455Z,8.70
2018-12-11T19:58:05.727Z,9.15
2018-12-11T20:00:34.661Z,11.37
2018-12-11T20:03:25.413Z,9.40
2018-12-11T20:05:55.287Z,10.70
2018-12-11T20:08:23.824Z,11.70
2018-12-11T20:13:46.745Z,12.73
2018-12-11T20:16:14.594Z,13.97
2018-12-11T20:18:42.665Z,14.77
2018-12-11T20:23:46.425Z,15.37
2018-12-11T20:26:16.491Z,18.90
2018-12-11T20:28:47.074Z,27.80
2018-12-11T20:31:15.957Z,22.27
2018-12-11T20:34:18.616Z,17.10
2018-12-11T20:36:46.775Z,13.80
2018-12-11T20:39:14.631Z,15.53
2018-12-11T20:41:44.035Z,12.70
2018-12-11T20:44:11.861Z,12.57
2018-12-11T20:46:39.641Z,12.50
2018-12-11T20:52:16.084Z,15.20
2018-12-11T20:54:45.580Z,13.10
2018-12-11T20:57:14.096Z,18.17
2018-12-11T20:59:42.609Z,14.37
2018-12-11T21:05:17.738Z,14.20
2018-12-11T21:07:46.434Z,16.48
2018-12-11T21:13:22.813Z,13.68
2018-12-11T21:15:51.468Z,11.63
2018-12-11T21:18:19.720Z,12.35
2018-12-11T21:20:48.133Z,15.70
2018-12-11T21:23:16.032Z,12.80
2018-12-11T21:25:47.214Z,14.30
2018-12-11T21:28:14.981Z,13.20
2018-12-11T21:33:51.188Z,12.98
2018-12-11T21:36:18.968Z,15.98
2018-12-11T21:38:46.904Z,15.90
2018-12-11T21:41:14.855Z,14.73
2018-12-11T21:43:43.601Z,18.32
2018-12-11T21:46:40.407Z,14.83
2018-12-11T21:49:08.967Z,14.15
2018-12-11T21:51:36.858Z,14.95
2018-12-11T21:54:05.661Z,15.43
2018-12-11T21:56:33.751Z,17.32
2018-12-11T21:59:01.540Z,15.30
2018-12-11T22:02:03.757Z,17.05
2018-12-11T22:04:32.199Z,17.17
2018-12-11T22:07:00.263Z,16.65
2018-12-11T22:10:03.110Z,16.30
2018-12-11T22:12:31.435Z,16.70
2018-12-11T22:14:59.600Z,19.48
2018-12-11T22:17:49.370Z,21.70
2018-12-11T22:20:17.180Z,18.65
2018-12-11T22:22:47.099Z,17.52
2018-12-11T22:25:15.000Z,15.95
2018-12-11T22:27:42.747Z,18.57
2018-12-11T22:30:11.780Z,16.73
2018-12-11T22:32:39.582Z,19.05
2018-12-11T22:35:07.448Z,19.40
2018-12-11T22:37:35.178Z,21.57
2018-12-11T22:40:04.020Z,21.05
2018-12-11T22:42:31.902Z,17.77
2018-12-11T22:44:59.744Z,17.52
2018-12-11T22:47:53.850Z,16.60
2018-12-11T22:50:21.611Z,17.80
2018-12-11T22:52:50.263Z,19.37
2018-12-11T22:55:18.743Z,18.02
2018-12-11T22:57:46.557Z,20.02
2018-12-11T23:00:14.307Z,19.37
2018-12-11T23:03:03.431Z,17.50
2018-12-11T23:05:31.356Z,18.62
2018-12-11T23:07:59.550Z,16.60
2018-12-11T23:10:27.790Z,18.10
2018-12-11T23:12:55.532Z,20.00
2018-12-11T23:15:23.320Z,17.85
2018-12-11T23:17:51.480Z,17.80
2018-12-11T23:20:19.211Z,20.68
2018-12-11T23:22:47.346Z,17.65
2018-12-11T23:25:16.243Z,18.80
2018-12-11T23:27:43.987Z,20.23
2018-12-11T23:30:11.871Z,22.70
2018-12-11T23:32:39.668Z,17.80
2018-12-11T23:35:07.876Z,20.10
2018-12-11T23:37:36.163Z,20.77
2018-12-11T23:40:04.858Z,21.37
2018-12-11T23:42:33.428Z,18.50
2018-12-11T23:45:01.216Z,18.98
2018-12-11T23:47:28.969Z,19.17
2018-12-11T23:49:56.698Z,18.23
2018-12-11T23:52:24.505Z,18.62
2018-12-11T23:54:52.346Z,19.42
2018-12-11T23:59:46.431Z,18.95
